createdAt,value
2022-08-25T00:00:25.993Z,99.51
2022-08-25T00:01:27.020Z,99.71
2022-08-25T00:02:26.051Z,99.76
2022-08-25T00:03:25.988Z,99.26
2022-08-25T00:04:25.986Z,99.15
2022-08-25T00:05:26.085Z,99.26
2022-08-25T00:06:25.980Z,99.41
2022-08-25T00:07:25.981Z,99.15
2022-08-25T00:08:25.978Z,99.46
2022-08-25T00:09:25.978Z,99.86
2022-08-25T00:10:25.972Z,99.86
2022-08-25T00:11:25.970Z,99.99
2022-08-25T00:12:25.968Z,99.96
2022-08-25T00:13:25.966Z,99.99
2022-08-25T00:14:25.964Z,99.86
2022-08-25T00:15:25.964Z,99.96
2022-08-25T00:16:25.958Z,99.76
2022-08-25T00:17:25.958Z,99.55
2022-08-25T00:18:25.953Z,99.99
2022-08-25T00:19:25.955Z,99.99
2022-08-25T00:20:25.950Z,99.55
2022-08-25T00:21:25.947Z,99.76
2022-08-25T00:22:25.944Z,99.99
2022-08-25T00:23:25.944Z,99.99
2022-08-25T00:24:25.956Z,99.99
2022-08-25T00:25:25.941Z,99.99
2022-08-25T00:26:25.935Z,99.99
2022-08-25T00:27:25.965Z,99.99
2022-08-25T00:28:25.934Z,99.80
2022-08-25T00:29:25.932Z,99.99
2022-08-25T00:30:25.948Z,99.99
2022-08-25T00:31:37.518Z,99.99
2022-08-25T00:32:25.923Z,99.60
2022-08-25T00:33:25.920Z,99.99
2022-08-25T00:34:25.922Z,99.99
2022-08-25T00:35:25.918Z,99.99
2022-08-25T00:36:25.916Z,99.99
2022-08-25T00:37:25.912Z,99.99
2022-08-25T00:38:25.908Z,99.99
2022-08-25T00:39:25.908Z,99.99
2022-08-25T00:40:25.961Z,99.99
2022-08-25T00:41:25.904Z,99.99
2022-08-25T00:42:25.900Z,99.99
2022-08-25T00:43:25.900Z,99.99
2022-08-25T00:44:25.897Z,99.99
2022-08-25T00:45:25.892Z,99.99
2022-08-25T00:46:25.905Z,99.99
2022-08-25T00:47:25.889Z,99.99
2022-08-25T00:48:25.890Z,99.99
2022-08-25T00:49:25.885Z,99.99
2022-08-25T00:50:26.558Z,99.99
2022-08-25T00:51:25.881Z,99.99
2022-08-25T00:52:25.882Z,99.99
2022-08-25T00:53:25.875Z,99.99
2022-08-25T00:54:25.873Z,99.99
2022-08-25T00:55:25.870Z,99.99
2022-08-25T00:56:25.868Z,99.99
2022-08-25T00:57:34.061Z,99.99
2022-08-25T00:58:25.862Z,99.99
2022-08-25T00:59:25.865Z,99.99
2022-08-25T01:00:25.860Z,99.99
2022-08-25T01:01:25.924Z,99.99
2022-08-25T01:02:25.889Z,99.99
2022-08-25T01:03:32.854Z,99.99
2022-08-25T01:04:25.857Z,99.99
2022-08-25T01:05:25.848Z,99.99
2022-08-25T01:06:25.846Z,99.99
2022-08-25T01:07:25.843Z,99.99
2022-08-25T01:08:25.843Z,99.99
2022-08-25T01:09:25.839Z,99.99
2022-08-25T01:10:25.839Z,99.99
2022-08-25T01:11:25.835Z,99.99
2022-08-25T01:12:25.832Z,99.99
2022-08-25T01:13:25.833Z,99.99
2022-08-25T01:14:26.432Z,99.99
2022-08-25T01:15:25.911Z,99.99
2022-08-25T01:16:25.825Z,99.99
2022-08-25T01:17:25.820Z,99.99
2022-08-25T01:18:25.825Z,99.99
2022-08-25T01:19:25.816Z,99.99
2022-08-25T01:20:29.466Z,99.99
2022-08-25T01:21:25.810Z,99.99
2022-08-25T01:22:25.809Z,99.99
2022-08-25T01:23:25.806Z,99.99
2022-08-25T01:24:25.803Z,99.99
2022-08-25T01:25:25.800Z,99.99
2022-08-25T01:26:30.580Z,99.99
2022-08-25T01:27:25.795Z,99.99
2022-08-25T01:28:25.795Z,99.99
2022-08-25T01:29:25.791Z,99.99
2022-08-25T01:30:25.796Z,99.99
2022-08-25T01:31:25.915Z,99.99
2022-08-25T01:32:25.783Z,99.99
2022-08-25T01:33:25.780Z,99.99
2022-08-25T01:34:25.779Z,99.99
2022-08-25T01:35:25.776Z,99.99
2022-08-25T01:36:25.773Z,99.99
2022-08-25T01:37:25.775Z,99.99
2022-08-25T01:38:25.769Z,99.99
2022-08-25T01:39:25.765Z,99.99
2022-08-25T01:40:25.830Z,99.99
2022-08-25T01:41:25.762Z,99.99
2022-08-25T01:42:25.759Z,99.99
2022-08-25T01:43:25.755Z,99.99
2022-08-25T01:44:25.753Z,99.99
2022-08-25T01:45:25.751Z,99.99
2022-08-25T01:46:25.815Z,99.99
2022-08-25T01:47:25.749Z,99.99
2022-08-25T01:48:25.746Z,99.99
2022-08-25T01:49:25.741Z,99.99
2022-08-25T01:50:25.741Z,99.99
2022-08-25T01:51:25.752Z,99.99
2022-08-25T01:52:25.733Z,99.99
2022-08-25T01:53:25.732Z,99.99
2022-08-25T01:54:25.729Z,99.99
2022-08-25T01:55:25.726Z,99.99
2022-08-25T01:56:25.725Z,99.99
2022-08-25T01:57:25.722Z,99.99
2022-08-25T01:58:25.722Z,99.99
2022-08-25T01:59:25.723Z,99.99
2022-08-25T02:00:25.714Z,99.99
2022-08-25T02:01:25.803Z,99.99
2022-08-25T02:02:26.156Z,99.99
2022-08-25T02:03:25.709Z,99.99
2022-08-25T02:04:25.706Z,99.99
2022-08-25T02:05:25.701Z,99.99
2022-08-25T02:06:28.856Z,99.99
2022-08-25T02:07:25.697Z,99.99
2022-08-25T02:08:25.693Z,99.99
2022-08-25T02:09:25.691Z,99.99
2022-08-25T02:10:25.690Z,99.99
2022-08-25T02:11:25.686Z,99.99
2022-08-25T02:12:25.681Z,99.99
2022-08-25T02:13:26.823Z,99.99
2022-08-25T02:14:25.680Z,99.99
2022-08-25T02:15:25.679Z,99.99
2022-08-25T02:16:25.752Z,99.99
2022-08-25T02:17:25.673Z,99.99
2022-08-25T02:18:25.671Z,99.99
2022-08-25T02:19:25.670Z,99.99
2022-08-25T02:20:25.665Z,99.99
2022-08-25T02:21:25.661Z,99.99
2022-08-25T02:22:25.660Z,99.99
2022-08-25T02:23:25.657Z,99.99
2022-08-25T02:24:25.657Z,99.99
2022-08-25T02:25:25.657Z,99.99
2022-08-25T02:26:25.652Z,99.99
2022-08-25T02:27:25.650Z,99.99
2022-08-25T02:28:25.648Z,99.99
2022-08-25T02:29:25.643Z,99.99
2022-08-25T02:30:25.691Z,99.99
2022-08-25T02:31:25.638Z,99.99
2022-08-25T02:32:25.638Z,99.99
2022-08-25T02:33:25.634Z,99.99
2022-08-25T02:34:25.634Z,99.99
2022-08-25T02:35:25.628Z,99.99
2022-08-25T02:36:25.629Z,99.99
2022-08-25T02:37:25.632Z,99.99
2022-08-25T02:38:25.621Z,99.99
2022-08-25T02:39:25.620Z,99.99
2022-08-25T02:40:25.690Z,99.99
2022-08-25T02:41:31.128Z,99.99
2022-08-25T02:42:25.613Z,99.99
2022-08-25T02:43:25.612Z,99.99
2022-08-25T02:44:25.606Z,99.99
2022-08-25T02:45:25.608Z,99.99
2022-08-25T02:46:25.649Z,99.99
2022-08-25T02:47:27.091Z,99.99
2022-08-25T02:48:25.597Z,99.99
2022-08-25T02:49:25.591Z,99.99
2022-08-25T02:50:25.590Z,99.99
2022-08-25T02:51:25.594Z,99.99
2022-08-25T02:52:25.587Z,99.99
2022-08-25T02:53:25.586Z,99.99
2022-08-25T02:54:25.583Z,99.99
2022-08-25T02:55:25.578Z,99.99
2022-08-25T02:56:25.581Z,99.99
2022-08-25T02:57:25.576Z,99.99
2022-08-25T02:58:25.571Z,99.99
2022-08-25T02:59:25.568Z,99.99
2022-08-25T03:00:25.566Z,99.99
2022-08-25T03:01:28.693Z,99.99
2022-08-25T03:02:25.560Z,99.99
2022-08-25T03:03:25.565Z,99.99
2022-08-25T03:04:25.593Z,99.99
2022-08-25T03:05:25.557Z,99.99
2022-08-25T03:06:25.554Z,99.99
2022-08-25T03:07:25.551Z,99.99
2022-08-25T03:08:25.546Z,99.99
2022-08-25T03:09:25.545Z,99.99
2022-08-25T03:10:25.540Z,99.99
2022-08-25T03:11:25.539Z,99.99
2022-08-25T03:12:25.534Z,99.99
2022-08-25T03:13:25.532Z,99.99
2022-08-25T03:14:25.531Z,99.99
2022-08-25T03:15:25.533Z,99.99
2022-08-25T03:16:27.658Z,99.99
2022-08-25T03:17:25.526Z,99.99
2022-08-25T03:18:25.519Z,99.99
2022-08-25T03:19:25.518Z,99.99
2022-08-25T03:20:25.515Z,99.99
2022-08-25T03:21:25.512Z,99.99
2022-08-25T03:22:25.508Z,99.99
2022-08-25T03:23:25.506Z,99.99
2022-08-25T03:24:25.505Z,99.99
2022-08-25T03:25:25.502Z,99.99
2022-08-25T03:26:25.499Z,99.99
2022-08-25T03:27:25.497Z,99.99
2022-08-25T03:28:30.068Z,99.99
2022-08-25T03:29:25.489Z,99.99
2022-08-25T03:30:25.485Z,99.99
2022-08-25T03:31:25.524Z,99.99
2022-08-25T03:32:25.483Z,99.99
2022-08-25T03:33:25.480Z,99.99
2022-08-25T03:34:25.475Z,99.99
2022-08-25T03:35:25.477Z,99.99
2022-08-25T03:36:25.470Z,99.99
2022-08-25T03:37:25.468Z,99.99
2022-08-25T03:38:25.463Z,99.99
2022-08-25T03:39:25.463Z,99.99
2022-08-25T03:40:25.557Z,99.99
2022-08-25T03:41:25.647Z,99.99
2022-08-25T03:42:25.451Z,99.99
2022-08-25T03:43:25.453Z,99.99
2022-08-25T03:44:25.447Z,99.99
2022-08-25T03:45:25.512Z,99.99
2022-08-25T03:46:25.445Z,99.99
2022-08-25T03:47:25.442Z,99.99
2022-08-25T03:48:25.436Z,99.99
2022-08-25T03:49:25.434Z,99.99
2022-08-25T03:50:25.429Z,99.99
2022-08-25T03:51:25.427Z,99.99
2022-08-25T03:52:25.423Z,99.99
2022-08-25T03:53:25.422Z,99.99
2022-08-25T03:54:25.419Z,99.99
2022-08-25T03:55:25.419Z,99.99
2022-08-25T03:56:25.417Z,99.99
2022-08-25T03:57:25.416Z,99.99
2022-08-25T03:58:25.415Z,99.99
2022-08-25T03:59:25.403Z,99.99
2022-08-25T04:00:25.402Z,99.99
2022-08-25T04:01:25.519Z,99.99
2022-08-25T04:02:25.503Z,99.99
2022-08-25T04:03:25.391Z,99.99
2022-08-25T04:04:25.388Z,99.99
2022-08-25T04:05:26.779Z,99.99
2022-08-25T04:06:25.380Z,99.99
2022-08-25T04:07:25.380Z,99.99
2022-08-25T04:08:25.375Z,99.99
2022-08-25T04:09:25.370Z,99.99
2022-08-25T04:10:25.384Z,99.99
2022-08-25T04:11:25.379Z,99.99
2022-08-25T04:12:25.361Z,99.99
2022-08-25T04:13:25.359Z,99.99
2022-08-25T04:14:25.355Z,99.99
2022-08-25T04:15:28.503Z,99.99
2022-08-25T04:16:25.396Z,99.99
2022-08-25T04:17:25.347Z,99.99
2022-08-25T04:18:25.344Z,99.99
2022-08-25T04:19:25.340Z,99.99
2022-08-25T04:20:25.334Z,99.99
2022-08-25T04:21:25.336Z,99.99
2022-08-25T04:22:25.330Z,99.99
2022-08-25T04:23:25.327Z,99.99
2022-08-25T04:24:25.320Z,99.99
2022-08-25T04:25:25.324Z,99.99
2022-08-25T04:26:25.315Z,99.99
2022-08-25T04:27:25.315Z,99.99
2022-08-25T04:28:25.311Z,99.99
2022-08-25T04:29:25.308Z,99.99
2022-08-25T04:30:25.304Z,99.99
2022-08-25T04:31:25.362Z,99.99
2022-08-25T04:32:25.297Z,99.99
2022-08-25T04:33:25.296Z,99.99
2022-08-25T04:34:29.867Z,99.99
2022-08-25T04:35:25.292Z,99.99
2022-08-25T04:36:25.289Z,99.99
2022-08-25T04:37:25.284Z,99.99
2022-08-25T04:38:25.279Z,99.99
2022-08-25T04:39:25.277Z,99.99
2022-08-25T04:40:29.120Z,99.99
2022-08-25T04:41:25.269Z,99.99
2022-08-25T04:42:25.267Z,99.99
2022-08-25T04:43:25.267Z,99.99
2022-08-25T04:44:25.259Z,99.99
2022-08-25T04:45:25.300Z,99.99
2022-08-25T04:46:25.252Z,99.99
2022-08-25T04:47:25.252Z,99.99
2022-08-25T04:48:25.246Z,99.99
2022-08-25T04:49:25.250Z,99.99
2022-08-25T04:50:25.240Z,99.99
2022-08-25T04:51:25.238Z,99.99
2022-08-25T04:52:25.235Z,99.99
2022-08-25T04:53:25.230Z,99.99
2022-08-25T04:54:25.225Z,99.99
2022-08-25T04:55:25.222Z,99.99
2022-08-25T04:56:25.243Z,99.99
2022-08-25T04:57:25.216Z,99.99
2022-08-25T04:58:25.214Z,99.99
2022-08-25T04:59:29.534Z,99.99
2022-08-25T05:00:25.209Z,99.99
2022-08-25T05:01:25.263Z,99.99
2022-08-25T05:02:25.204Z,99.99
2022-08-25T05:03:25.198Z,99.99
2022-08-25T05:04:28.737Z,99.99
2022-08-25T05:05:25.194Z,99.99
2022-08-25T05:06:25.188Z,99.99
2022-08-25T05:07:25.188Z,99.99
2022-08-25T05:08:25.185Z,99.99
2022-08-25T05:09:25.342Z,99.99
2022-08-25T05:10:25.174Z,99.99
2022-08-25T05:11:25.175Z,99.99
2022-08-25T05:12:25.174Z,99.99
2022-08-25T05:13:25.167Z,99.99
2022-08-25T05:14:26.257Z,99.99
2022-08-25T05:15:25.164Z,99.99
2022-08-25T05:16:25.226Z,99.99
2022-08-25T05:17:25.156Z,99.99
2022-08-25T05:18:25.153Z,99.99
2022-08-25T05:19:25.150Z,99.99
2022-08-25T05:20:25.151Z,99.99
2022-08-25T05:21:25.141Z,99.99
2022-08-25T05:22:25.141Z,99.99
2022-08-25T05:23:25.138Z,99.99
2022-08-25T05:24:25.137Z,99.99
2022-08-25T05:25:25.132Z,99.99
2022-08-25T05:26:25.131Z,99.99
2022-08-25T05:27:25.126Z,99.99
2022-08-25T05:28:25.124Z,99.99
2022-08-25T05:29:25.122Z,99.99
2022-08-25T05:30:25.122Z,99.99
2022-08-25T05:31:25.272Z,99.99
2022-08-25T05:32:25.108Z,99.99
2022-08-25T05:33:25.113Z,99.99
2022-08-25T05:34:25.106Z,99.99
2022-08-25T05:35:25.103Z,99.99
2022-08-25T05:36:25.098Z,99.99
2022-08-25T05:37:25.099Z,99.99
2022-08-25T05:38:25.107Z,99.99
2022-08-25T05:39:25.092Z,99.99
2022-08-25T05:40:25.143Z,99.99
2022-08-25T05:41:25.085Z,99.99
2022-08-25T05:42:25.088Z,99.99
2022-08-25T05:43:25.082Z,99.99
2022-08-25T05:44:25.077Z,99.99
2022-08-25T05:45:25.110Z,99.99
2022-08-25T05:46:25.074Z,99.99
2022-08-25T05:47:25.068Z,99.99
2022-08-25T05:48:25.066Z,99.99
2022-08-25T05:49:25.062Z,99.99
2022-08-25T05:50:25.061Z,99.99
2022-08-25T05:51:25.056Z,99.99
2022-08-25T05:52:25.054Z,99.99
2022-08-25T05:53:25.055Z,99.99
2022-08-25T05:54:25.050Z,99.99
2022-08-25T05:55:25.046Z,99.99
2022-08-25T05:56:25.043Z,99.99
2022-08-25T05:57:25.041Z,99.99
2022-08-25T05:58:25.036Z,99.99
2022-08-25T05:59:25.037Z,99.99
2022-08-25T06:00:25.032Z,99.99
2022-08-25T06:01:25.060Z,99.99
2022-08-25T06:02:25.025Z,99.99
2022-08-25T06:03:25.118Z,99.99
2022-08-25T06:04:25.019Z,99.99
2022-08-25T06:05:25.016Z,99.99
2022-08-25T06:06:25.015Z,99.99
2022-08-25T06:07:25.013Z,99.99
2022-08-25T06:08:25.008Z,99.99
2022-08-25T06:09:25.005Z,99.99
2022-08-25T06:10:25.003Z,99.99
2022-08-25T06:11:25.002Z,99.99
2022-08-25T06:12:24.995Z,99.99
2022-08-25T06:13:28.633Z,99.99
2022-08-25T06:14:24.994Z,99.99
2022-08-25T06:15:24.986Z,99.99
2022-08-25T06:16:25.055Z,99.99
2022-08-25T06:17:24.987Z,99.99
2022-08-25T06:18:24.980Z,99.99
2022-08-25T06:19:24.975Z,99.99
2022-08-25T06:20:25.407Z,99.99
2022-08-25T06:21:24.971Z,99.99
2022-08-25T06:22:24.992Z,99.99
2022-08-25T06:23:24.969Z,99.99
2022-08-25T06:24:24.962Z,99.99
2022-08-25T06:25:24.963Z,99.99
2022-08-25T06:26:24.959Z,99.99
2022-08-25T06:27:24.953Z,99.99
2022-08-25T06:28:24.952Z,99.99
2022-08-25T06:29:24.949Z,99.99
2022-08-25T06:30:28.679Z,99.99
2022-08-25T06:31:24.990Z,99.99
2022-08-25T06:32:24.941Z,99.99
2022-08-25T06:33:24.939Z,99.99
2022-08-25T06:34:24.933Z,99.99
2022-08-25T06:35:24.933Z,99.99
2022-08-25T06:36:24.929Z,99.99
2022-08-25T06:37:25.379Z,99.99
2022-08-25T06:38:24.923Z,99.99
2022-08-25T06:39:24.918Z,99.99
2022-08-25T06:40:25.015Z,99.99
2022-08-25T06:41:24.915Z,99.99
2022-08-25T06:42:24.911Z,99.99
2022-08-25T06:43:24.910Z,99.99
2022-08-25T06:44:24.906Z,99.99
2022-08-25T06:45:24.902Z,99.99
2022-08-25T06:46:34.741Z,99.99
2022-08-25T06:47:25.000Z,99.99
2022-08-25T06:48:24.895Z,99.99
2022-08-25T06:49:24.894Z,99.99
2022-08-25T06:50:24.938Z,99.99
2022-08-25T06:51:24.899Z,99.99
2022-08-25T06:52:28.862Z,99.99
2022-08-25T06:53:24.890Z,99.99
2022-08-25T06:54:24.878Z,99.99
2022-08-25T06:55:24.879Z,99.99
2022-08-25T06:56:24.873Z,99.99
2022-08-25T06:57:24.871Z,99.99
2022-08-25T06:58:24.870Z,99.99
2022-08-25T06:59:24.867Z,99.99
2022-08-25T07:00:30.324Z,99.99
2022-08-25T07:01:25.883Z,99.99
2022-08-25T07:02:24.891Z,99.99
2022-08-25T07:03:24.913Z,99.99
2022-08-25T07:04:24.855Z,99.99
2022-08-25T07:05:33.432Z,99.99
2022-08-25T07:06:24.848Z,99.99
2022-08-25T07:07:24.844Z,99.99
2022-08-25T07:08:24.843Z,99.99
2022-08-25T07:09:24.848Z,99.99
2022-08-25T07:10:24.838Z,99.99
2022-08-25T07:11:24.839Z,99.99
2022-08-25T07:12:24.831Z,99.99
2022-08-25T07:13:24.828Z,99.99
2022-08-25T07:14:24.829Z,99.99
2022-08-25T07:15:24.830Z,99.99
2022-08-25T07:16:29.597Z,99.66
2022-08-25T07:17:24.818Z,99.99
2022-08-25T07:18:24.819Z,99.99
2022-08-25T07:19:24.823Z,99.99
2022-08-25T07:21:27.889Z,99.99
2022-08-25T07:22:24.809Z,99.99
2022-08-25T07:23:24.812Z,99.99
2022-08-25T07:24:24.806Z,99.82
2022-08-25T07:25:24.806Z,99.99
2022-08-25T07:26:37.267Z,99.99
2022-08-25T07:27:24.801Z,99.99
2022-08-25T07:28:25.348Z,99.99
2022-08-25T07:29:31.663Z,99.91
2022-08-25T07:30:24.793Z,99.91
2022-08-25T07:31:28.213Z,99.99
2022-08-25T07:32:24.790Z,99.99
2022-08-25T07:33:24.788Z,99.77
2022-08-25T07:34:25.546Z,99.77
2022-08-25T07:35:26.247Z,99.27
2022-08-25T07:36:24.784Z,99.57
2022-08-25T07:37:47.583Z,98.97
2022-08-25T07:38:24.774Z,99.67
2022-08-25T07:39:24.780Z,99.27
2022-08-25T07:40:24.940Z,99.37
2022-08-25T07:41:24.770Z,99.16
2022-08-25T07:42:24.767Z,98.77
2022-08-25T07:43:24.767Z,98.86
2022-08-25T07:44:24.767Z,98.57
2022-08-25T07:45:24.767Z,98.42
2022-08-25T07:46:24.780Z,98.52
2022-08-25T07:47:24.760Z,98.72
2022-08-25T07:48:24.761Z,97.81
2022-08-25T07:49:24.756Z,98.27
2022-08-25T07:50:24.757Z,98.27
2022-08-25T07:51:24.753Z,96.77
2022-08-25T07:52:24.752Z,96.52
2022-08-25T07:53:24.754Z,96.32
2022-08-25T07:54:24.750Z,95.97
2022-08-25T07:55:24.746Z,95.07
2022-08-25T07:56:24.745Z,95.01
2022-08-25T07:57:24.746Z,96.08
2022-08-25T07:58:24.743Z,95.87
2022-08-25T07:59:24.743Z,95.83
2022-08-25T08:00:24.757Z,94.73
2022-08-25T08:01:24.799Z,94.23
2022-08-25T08:02:24.905Z,94.47
2022-08-25T08:03:44.752Z,94.62
2022-08-25T08:04:24.737Z,94.23
2022-08-25T08:05:24.733Z,94.12
2022-08-25T08:06:24.733Z,94.23
2022-08-25T08:07:41.135Z,94.12
2022-08-25T08:08:24.737Z,94.73
2022-08-25T08:09:24.727Z,94.53
2022-08-25T08:10:48.013Z,93.93
2022-08-25T08:11:24.737Z,93.78
2022-08-25T08:12:24.724Z,93.78
2022-08-25T08:13:24.725Z,93.58
2022-08-25T08:14:24.725Z,92.98
2022-08-25T08:15:24.723Z,92.78
2022-08-25T08:16:24.786Z,93.08
2022-08-25T08:17:24.718Z,93.48
2022-08-25T08:18:24.715Z,93.93
2022-08-25T08:19:24.717Z,93.43
2022-08-25T08:20:24.714Z,93.73
2022-08-25T08:21:24.714Z,94.02
2022-08-25T08:22:24.713Z,94.17
2022-08-25T08:23:24.712Z,94.07
2022-08-25T08:24:44.459Z,94.17
2022-08-25T08:25:26.522Z,94.43
2022-08-25T08:26:36.485Z,94.43
2022-08-25T08:27:24.725Z,94.32
2022-08-25T08:28:24.707Z,94.02
2022-08-25T08:29:24.705Z,93.52
2022-08-25T08:30:26.248Z,93.73
2022-08-25T08:31:24.740Z,93.62
2022-08-25T08:32:31.414Z,94.58
2022-08-25T08:33:24.709Z,93.88
2022-08-25T08:34:25.184Z,93.24
2022-08-25T08:35:24.697Z,93.04
2022-08-25T08:36:25.525Z,91.98
2022-08-25T08:37:24.697Z,92.74
2022-08-25T08:38:27.146Z,92.93
2022-08-25T08:39:24.693Z,91.93
2022-08-25T08:40:24.828Z,91.49
2022-08-25T08:41:24.698Z,91.09
2022-08-25T08:42:24.689Z,90.05
2022-08-25T08:43:25.107Z,90.75
2022-08-25T08:44:24.692Z,90.39
2022-08-25T08:45:24.691Z,91.09
2022-08-25T08:46:26.006Z,91.13
2022-08-25T08:47:24.689Z,91.83
2022-08-25T08:48:24.691Z,91.74
2022-08-25T08:49:26.759Z,91.44
2022-08-25T08:50:27.745Z,91.03
2022-08-25T08:51:24.695Z,91.74
2022-08-25T08:52:24.684Z,91.53
2022-08-25T08:53:24.686Z,91.69
2022-08-25T08:54:24.703Z,90.95
2022-08-25T08:55:24.683Z,89.15
2022-08-25T08:56:24.680Z,90.35
2022-08-25T08:57:24.683Z,89.81
2022-08-25T08:58:26.304Z,89.01
2022-08-25T08:59:30.033Z,88.81
2022-08-25T09:00:24.682Z,88.81
2022-08-25T09:01:24.759Z,89.31
2022-08-25T09:02:38.836Z,88.40
2022-08-25T09:03:24.726Z,89.25
2022-08-25T09:04:24.677Z,90.00
2022-08-25T09:05:24.677Z,88.95
2022-08-25T09:06:24.678Z,89.55
2022-08-25T09:07:24.677Z,90.05
2022-08-25T09:08:24.678Z,90.25
2022-08-25T09:09:24.677Z,90.25
2022-08-25T09:10:24.678Z,90.05
2022-08-25T09:11:24.680Z,89.01
2022-08-25T09:12:24.680Z,89.20
2022-08-25T09:13:26.272Z,88.90
2022-08-25T09:14:30.194Z,88.10
2022-08-25T09:15:24.675Z,87.87
2022-08-25T09:16:33.993Z,88.01
2022-08-25T09:17:24.673Z,87.96
2022-08-25T09:18:24.669Z,88.17
2022-08-25T09:19:24.674Z,87.76
2022-08-25T09:20:24.674Z,87.37
2022-08-25T09:21:24.678Z,87.76
2022-08-25T09:22:33.400Z,87.73
2022-08-25T09:23:24.673Z,87.02
2022-08-25T09:24:24.674Z,86.72
2022-08-25T09:25:39.570Z,87.16
2022-08-25T09:26:24.672Z,87.23
2022-08-25T09:27:24.693Z,86.87
2022-08-25T09:28:24.670Z,86.82
2022-08-25T09:29:25.404Z,86.29
2022-08-25T09:30:25.094Z,86.98
2022-08-25T09:31:29.331Z,86.49
2022-08-25T09:32:31.321Z,86.08
2022-08-25T09:33:24.672Z,86.15
2022-08-25T09:34:24.672Z,84.95
2022-08-25T09:35:24.671Z,84.69
2022-08-25T09:36:24.677Z,85.83
2022-08-25T09:37:24.673Z,86.63
2022-08-25T09:38:24.672Z,87.02
2022-08-25T09:39:24.672Z,86.72
2022-08-25T09:40:24.763Z,86.29
2022-08-25T09:41:24.674Z,85.64
2022-08-25T09:42:24.673Z,85.44
2022-08-25T09:43:24.673Z,84.25
2022-08-25T09:44:26.013Z,85.58
2022-08-25T09:45:24.674Z,86.49
2022-08-25T09:46:26.971Z,86.08
2022-08-25T09:47:24.672Z,86.68
2022-08-25T09:48:24.674Z,86.54
2022-08-25T09:49:24.674Z,85.50
2022-08-25T09:50:24.675Z,85.41
2022-08-25T09:51:24.706Z,84.01
2022-08-25T09:52:25.210Z,83.87
2022-08-25T09:53:24.675Z,84.65
2022-08-25T09:54:25.584Z,85.74
2022-08-25T09:55:24.679Z,84.75
2022-08-25T09:56:24.674Z,85.05
2022-08-25T09:57:24.676Z,84.65
2022-08-25T09:58:24.676Z,84.35
2022-08-25T09:59:34.102Z,85.55
2022-08-25T10:00:24.671Z,85.25
2022-08-25T10:01:24.706Z,84.31
2022-08-25T10:02:24.677Z,84.61
2022-08-25T10:03:25.254Z,83.47
2022-08-25T10:04:24.678Z,83.37
2022-08-25T10:05:24.720Z,83.33
2022-08-25T10:06:24.678Z,82.54
2022-08-25T10:07:24.744Z,82.54
2022-08-25T10:08:24.892Z,83.23
2022-08-25T10:09:24.681Z,82.54
2022-08-25T10:10:24.679Z,81.54
2022-08-25T10:11:24.681Z,81.94
2022-08-25T10:12:24.971Z,82.67
2022-08-25T10:13:24.689Z,82.54
2022-08-25T10:14:24.826Z,82.37
2022-08-25T10:15:29.983Z,82.87
2022-08-25T10:16:25.201Z,82.37
2022-08-25T10:17:24.698Z,81.04
2022-08-25T10:18:25.734Z,80.35
2022-08-25T10:19:24.681Z,80.84
2022-08-25T10:20:24.679Z,80.38
2022-08-25T10:21:24.685Z,80.88
2022-08-25T10:22:24.773Z,81.54
2022-08-25T10:23:24.686Z,81.34
2022-08-25T10:24:24.685Z,80.94
2022-08-25T10:25:24.688Z,80.41
2022-08-25T10:26:24.686Z,80.30
2022-08-25T10:27:25.976Z,81.04
2022-08-25T10:28:24.688Z,80.21
2022-08-25T10:29:24.686Z,80.00
2022-08-25T10:30:24.689Z,79.01
2022-08-25T10:31:24.710Z,80.35
2022-08-25T10:32:24.688Z,80.54
2022-08-25T10:33:24.704Z,80.05
2022-08-25T10:34:24.690Z,80.84
2022-08-25T10:35:24.691Z,79.94
2022-08-25T10:36:24.695Z,79.15
2022-08-25T10:37:24.692Z,80.54
2022-08-25T10:38:27.187Z,80.38
2022-08-25T10:39:33.994Z,80.38
2022-08-25T10:40:24.739Z,80.65
2022-08-25T10:41:24.695Z,80.54
2022-08-25T10:42:25.970Z,80.30
2022-08-25T10:43:24.697Z,79.35
2022-08-25T10:44:24.697Z,79.31
2022-08-25T10:45:24.697Z,79.21
2022-08-25T10:46:24.762Z,79.25
2022-08-25T10:47:24.700Z,79.61
2022-08-25T10:48:24.699Z,79.51
2022-08-25T10:49:24.700Z,79.51
2022-08-25T10:50:24.700Z,79.31
2022-08-25T10:51:25.694Z,78.28
2022-08-25T10:52:24.700Z,78.38
2022-08-25T10:53:24.704Z,77.98
2022-08-25T10:54:24.703Z,77.45
2022-08-25T10:55:24.703Z,77.88
2022-08-25T10:56:24.712Z,77.84
2022-08-25T10:57:24.703Z,77.25
2022-08-25T10:58:24.708Z,77.34
2022-08-25T10:59:24.705Z,76.65
2022-08-25T11:00:28.769Z,76.75
2022-08-25T11:01:28.197Z,76.15
2022-08-25T11:02:24.703Z,76.45
2022-08-25T11:03:25.584Z,76.65
2022-08-25T11:04:25.257Z,76.98
2022-08-25T11:05:25.011Z,76.79
2022-08-25T11:06:24.710Z,76.55
2022-08-25T11:07:24.712Z,76.75
2022-08-25T11:08:24.713Z,76.75
2022-08-25T11:09:24.716Z,76.15
2022-08-25T11:10:24.715Z,76.55
2022-08-25T11:11:24.717Z,76.25
2022-08-25T11:12:24.715Z,77.45
2022-08-25T11:13:24.720Z,76.81
2022-08-25T11:14:24.719Z,76.81
2022-08-25T11:15:24.720Z,75.95
2022-08-25T11:16:24.757Z,76.21
2022-08-25T11:17:24.726Z,76.35
2022-08-25T11:18:24.721Z,76.06
2022-08-25T11:19:24.726Z,75.62
2022-08-25T11:20:27.079Z,74.99
2022-08-25T11:21:24.727Z,75.88
2022-08-25T11:22:24.730Z,74.06
2022-08-25T11:23:24.727Z,73.56
2022-08-25T11:24:24.727Z,74.26
2022-08-25T11:25:24.730Z,73.16
2022-08-25T11:26:28.889Z,72.97
2022-08-25T11:27:24.772Z,72.86
2022-08-25T11:28:24.732Z,72.86
2022-08-25T11:29:24.730Z,73.50
2022-08-25T11:30:25.844Z,73.56
2022-08-25T11:31:24.736Z,73.99
2022-08-25T11:32:24.748Z,73.60
2022-08-25T11:33:24.742Z,74.09
2022-08-25T11:34:24.735Z,74.69
2022-08-25T11:35:24.738Z,74.09
2022-08-25T11:36:24.742Z,73.96
2022-08-25T11:37:24.742Z,72.97
2022-08-25T11:38:24.743Z,72.44
2022-08-25T11:39:24.744Z,72.83
2022-08-25T11:40:24.796Z,72.63
2022-08-25T11:41:24.745Z,73.20
2022-08-25T11:42:24.746Z,74.59
2022-08-25T11:43:24.749Z,73.96
2022-08-25T11:44:24.751Z,73.36
2022-08-25T11:45:24.753Z,73.96
2022-08-25T11:46:26.182Z,73.27
2022-08-25T11:47:24.753Z,72.57
2022-08-25T11:48:24.791Z,73.53
2022-08-25T11:49:24.754Z,72.67
2022-08-25T11:50:25.842Z,72.97
2022-08-25T11:51:24.757Z,72.73
2022-08-25T11:52:28.903Z,72.77
2022-08-25T11:53:26.900Z,72.73
2022-08-25T11:54:24.763Z,72.24
2022-08-25T11:55:24.765Z,72.20
2022-08-25T11:56:24.765Z,71.28
2022-08-25T11:57:24.765Z,70.58
2022-08-25T11:58:24.765Z,71.17
2022-08-25T11:59:24.767Z,70.02
2022-08-25T12:00:24.783Z,71.25
2022-08-25T12:01:24.772Z,71.94
2022-08-25T12:02:24.772Z,72.04
2022-08-25T12:03:24.779Z,72.17
2022-08-25T12:04:24.808Z,72.24
2022-08-25T12:05:24.818Z,72.04
2022-08-25T12:06:24.780Z,71.64
2022-08-25T12:07:24.780Z,72.33
2022-08-25T12:08:24.781Z,71.91
2022-08-25T12:09:24.781Z,70.51
2022-08-25T12:10:24.782Z,70.42
2022-08-25T12:11:24.783Z,70.65
2022-08-25T12:12:24.786Z,68.76
2022-08-25T12:13:24.787Z,68.37
2022-08-25T12:14:24.790Z,68.76
2022-08-25T12:15:24.789Z,68.83
2022-08-25T12:16:24.835Z,68.01
2022-08-25T12:17:24.791Z,68.20
2022-08-25T12:18:24.801Z,67.64
2022-08-25T12:19:24.800Z,68.17
2022-08-25T12:20:24.818Z,68.90
2022-08-25T12:21:24.798Z,69.72
2022-08-25T12:22:24.801Z,69.72
2022-08-25T12:23:24.803Z,70.12
2022-08-25T12:24:24.804Z,68.93
2022-08-25T12:25:24.818Z,69.92
2022-08-25T12:26:24.806Z,69.49
2022-08-25T12:27:24.806Z,68.70
2022-08-25T12:28:24.811Z,69.29
2022-08-25T12:29:24.811Z,69.59
2022-08-25T12:30:26.274Z,69.59
2022-08-25T12:31:24.814Z,69.36
2022-08-25T12:32:24.817Z,70.25
2022-08-25T12:33:24.818Z,70.12
2022-08-25T12:34:26.854Z,67.24
2022-08-25T12:35:24.826Z,68.43
2022-08-25T12:36:24.822Z,66.62
2022-08-25T12:37:24.825Z,65.33
2022-08-25T12:38:24.823Z,66.49
2022-08-25T12:39:24.834Z,65.40
2022-08-25T12:40:24.874Z,65.30
2022-08-25T12:41:24.832Z,65.50
2022-08-25T12:42:26.281Z,65.50
2022-08-25T12:43:25.095Z,65.03
2022-08-25T12:44:24.837Z,65.56
2022-08-25T12:45:24.837Z,66.85
2022-08-25T12:46:24.871Z,67.18
2022-08-25T12:47:24.841Z,65.99
2022-08-25T12:48:24.843Z,66.39
2022-08-25T12:49:24.845Z,66.68
2022-08-25T12:50:24.848Z,66.95
2022-08-25T12:51:24.849Z,66.75
2022-08-25T12:52:27.820Z,66.55
2022-08-25T12:53:24.852Z,66.75